sensor_id;sensor_type;location;lat;lon;timestamp;P1;durP1;ratioP1;P2;durP2;ratioP2
50671;SDS011;46021;55.882;37.654;2022-09-03T00:00:12;9.82;;;3.63;;
50671;SDS011;46021;55.882;37.654;2022-09-03T00:02:41;11.32;;;3.58;;
50671;SDS011;46021;55.882;37.654;2022-09-03T00:05:15;11.45;;;4.18;;
50671;SDS011;46021;55.882;37.654;2022-09-03T00:07:48;7.28;;;3.22;;
50671;SDS011;46021;55.882;37.654;2022-09-03T00:10:23;10.63;;;4.30;;
50671;SDS011;46021;55.882;37.654;2022-09-03T00:12:55;6.45;;;3.75;;
50671;SDS011;46021;55.882;37.654;2022-09-03T00:15:27;8.15;;;4.32;;
50671;SDS011;46021;55.882;37.654;2022-09-03T00:17:58;7.20;;;4.47;;
50671;SDS011;46021;55.882;37.654;2022-09-03T00:20:30;13.45;;;5.22;;
50671;SDS011;46021;55.882;37.654;2022-09-03T00:23:02;8.10;;;4.57;;
50671;SDS011;46021;55.882;37.654;2022-09-03T00:25:33;9.80;;;4.60;;
50671;SDS011;46021;55.882;37.654;2022-09-03T00:28:05;9.55;;;4.90;;
50671;SDS011;46021;55.882;37.654;2022-09-03T00:30:38;13.60;;;5.40;;
50671;SDS011;46021;55.882;37.654;2022-09-03T00:33:07;9.07;;;5.63;;
50671;SDS011;46021;55.882;37.654;2022-09-03T00:35:40;7.07;;;3.72;;
50671;SDS011;46021;55.882;37.654;2022-09-03T00:38:12;9.88;;;6.18;;
50671;SDS011;46021;55.882;37.654;2022-09-03T00:40:44;8.90;;;6.10;;
50671;SDS011;46021;55.882;37.654;2022-09-03T00:43:23;11.30;;;5.15;;
50671;SDS011;46021;55.882;37.654;2022-09-03T00:46:02;9.23;;;4.20;;
50671;SDS011;46021;55.882;37.654;2022-09-03T00:48:43;9.50;;;4.03;;
50671;SDS011;46021;55.882;37.654;2022-09-03T00:51:32;6.03;;;3.80;;
50671;SDS011;46021;55.882;37.654;2022-09-03T00:54:05;2.85;;;1.70;;
50671;SDS011;46021;55.882;37.654;2022-09-03T00:56:43;7.57;;;3.08;;
50671;SDS011;46021;55.882;37.654;2022-09-03T00:59:20;4.70;;;1.80;;
50671;SDS011;46021;55.882;37.654;2022-09-03T01:02:02;2.13;;;1.00;;
50671;SDS011;46021;55.882;37.654;2022-09-03T01:04:39;3.50;;;1.52;;
50671;SDS011;46021;55.882;37.654;2022-09-03T01:07:18;1.23;;;0.77;;
50671;SDS011;46021;55.882;37.654;2022-09-03T01:09:58;2.13;;;1.15;;
50671;SDS011;46021;55.882;37.654;2022-09-03T01:12:38;3.67;;;1.48;;
50671;SDS011;46021;55.882;37.654;2022-09-03T01:15:14;3.72;;;1.50;;
50671;SDS011;46021;55.882;37.654;2022-09-03T01:17:49;4.47;;;1.83;;
50671;SDS011;46021;55.882;37.654;2022-09-03T01:20:28;4.80;;;2.03;;
50671;SDS011;46021;55.882;37.654;2022-09-03T01:26:14;2.90;;;1.42;;
50671;SDS011;46021;55.882;37.654;2022-09-03T01:28:55;2.83;;;1.58;;
50671;SDS011;46021;55.882;37.654;2022-09-03T01:31:31;1.02;;;0.73;;
50671;SDS011;46021;55.882;37.654;2022-09-03T01:36:43;1.75;;;0.75;;
50671;SDS011;46021;55.882;37.654;2022-09-03T01:39:16;2.42;;;1.33;;
50671;SDS011;46021;55.882;37.654;2022-09-03T01:41:56;2.63;;;0.95;;
50671;SDS011;46021;55.882;37.654;2022-09-03T01:44:43;1.58;;;0.98;;
50671;SDS011;46021;55.882;37.654;2022-09-03T01:47:32;6.35;;;1.58;;
50671;SDS011;46021;55.882;37.654;2022-09-03T01:50:07;2.30;;;1.40;;
50671;SDS011;46021;55.882;37.654;2022-09-03T01:52:42;2.33;;;1.35;;
50671;SDS011;46021;55.882;37.654;2022-09-03T01:55:20;2.35;;;1.40;;
50671;SDS011;46021;55.882;37.654;2022-09-03T01:57:57;2.42;;;0.95;;
50671;SDS011;46021;55.882;37.654;2022-09-03T02:00:28;0.93;;;0.60;;
50671;SDS011;46021;55.882;37.654;2022-09-03T02:02:59;2.63;;;1.35;;
50671;SDS011;46021;55.882;37.654;2022-09-03T02:05:30;1.83;;;1.30;;
50671;SDS011;46021;55.882;37.654;2022-09-03T02:07:57;1.10;;;0.70;;
50671;SDS011;46021;55.882;37.654;2022-09-03T02:10:26;4.63;;;1.83;;
50671;SDS011;46021;55.882;37.654;2022-09-03T02:12:58;2.50;;;1.45;;
50671;SDS011;46021;55.882;37.654;2022-09-03T02:15:30;2.35;;;1.20;;
50671;SDS011;46021;55.882;37.654;2022-09-03T02:17:59;1.38;;;0.95;;
50671;SDS011;46021;55.882;37.654;2022-09-03T02:20:28;2.35;;;1.58;;
50671;SDS011;46021;55.882;37.654;2022-09-03T02:22:55;5.15;;;2.00;;
50671;SDS011;46021;55.882;37.654;2022-09-03T02:27:53;0.65;;;0.65;;
50671;SDS011;46021;55.882;37.654;2022-09-03T02:30:20;3.75;;;0.98;;
50671;SDS011;46021;55.882;37.654;2022-09-03T02:32:48;5.50;;;0.98;;
50671;SDS011;46021;55.882;37.654;2022-09-03T02:35:14;2.80;;;1.00;;
50671;SDS011;46021;55.882;37.654;2022-09-03T02:37:41;3.90;;;1.35;;
50671;SDS011;46021;55.882;37.654;2022-09-03T02:40:07;2.80;;;1.35;;
50671;SDS011;46021;55.882;37.654;2022-09-03T02:42:36;4.78;;;1.30;;
50671;SDS011;46021;55.882;37.654;2022-09-03T02:45:06;1.65;;;0.82;;
50671;SDS011;46021;55.882;37.654;2022-09-03T02:47:44;3.35;;;1.40;;
50671;SDS011;46021;55.882;37.654;2022-09-03T02:50:15;1.35;;;0.80;;
50671;SDS011;46021;55.882;37.654;2022-09-03T02:52:42;5.97;;;1.08;;
50671;SDS011;46021;55.882;37.654;2022-09-03T02:55:09;1.13;;;0.63;;
50671;SDS011;46021;55.882;37.654;2022-09-03T02:57:35;4.88;;;1.50;;
50671;SDS011;46021;55.882;37.654;2022-09-03T03:00:02;3.55;;;1.30;;
50671;SDS011;46021;55.882;37.654;2022-09-03T03:02:30;1.77;;;0.90;;
50671;SDS011;46021;55.882;37.654;2022-09-03T03:04:58;2.72;;;1.45;;
50671;SDS011;46021;55.882;37.654;2022-09-03T03:07:30;2.92;;;1.50;;
50671;SDS011;46021;55.882;37.654;2022-09-03T03:10:01;1.98;;;1.05;;
50671;SDS011;46021;55.882;37.654;2022-09-03T03:12:28;2.53;;;1.50;;
50671;SDS011;46021;55.882;37.654;2022-09-03T03:14:55;4.10;;;1.30;;
50671;SDS011;46021;55.882;37.654;2022-09-03T03:17:22;2.65;;;1.02;;
50671;SDS011;46021;55.882;37.654;2022-09-03T03:19:48;0.82;;;0.65;;
50671;SDS011;46021;55.882;37.654;2022-09-03T03:22:15;3.05;;;1.67;;
50671;SDS011;46021;55.882;37.654;2022-09-03T03:24:42;3.38;;;1.88;;
50671;SDS011;46021;55.882;37.654;2022-09-03T03:27:08;2.53;;;1.20;;
50671;SDS011;46021;55.882;37.654;2022-09-03T03:29:35;3.13;;;1.35;;
50671;SDS011;46021;55.882;37.654;2022-09-03T03:32:02;2.80;;;1.70;;
50671;SDS011;46021;55.882;37.654;2022-09-03T03:34:28;2.90;;;1.50;;
50671;SDS011;46021;55.882;37.654;2022-09-03T03:36:55;3.05;;;1.20;;
50671;SDS011;46021;55.882;37.654;2022-09-03T03:39:21;3.25;;;1.20;;
50671;SDS011;46021;55.882;37.654;2022-09-03T03:41:49;2.63;;;1.50;;
50671;SDS011;46021;55.882;37.654;2022-09-03T03:44:16;2.13;;;1.35;;
50671;SDS011;46021;55.882;37.654;2022-09-03T03:46:44;2.13;;;0.90;;
50671;SDS011;46021;55.882;37.654;2022-09-03T03:49:11;2.17;;;1.02;;
50671;SDS011;46021;55.882;37.654;2022-09-03T03:51:38;4.22;;;1.20;;
50671;SDS011;46021;55.882;37.654;2022-09-03T03:54:05;1.77;;;1.17;;
50671;SDS011;46021;55.882;37.654;2022-09-03T03:56:33;5.40;;;1.10;;
50671;SDS011;46021;55.882;37.654;2022-09-03T03:59:01;2.45;;;1.13;;
50671;SDS011;46021;55.882;37.654;2022-09-03T04:01:28;2.45;;;1.17;;
50671;SDS011;46021;55.882;37.654;2022-09-03T04:03:55;1.75;;;1.10;;
50671;SDS011;46021;55.882;37.654;2022-09-03T04:06:24;4.30;;;1.23;;
50671;SDS011;46021;55.882;37.654;2022-09-03T04:08:51;1.38;;;0.93;;
50671;SDS011;46021;55.882;37.654;2022-09-03T04:11:18;2.15;;;1.35;;
50671;SDS011;46021;55.882;37.654;2022-09-03T04:13:46;5.78;;;1.30;;
50671;SDS011;46021;55.882;37.654;2022-09-03T04:16:15;1.27;;;0.98;;
50671;SDS011;46021;55.882;37.654;2022-09-03T04:18:43;1.50;;;0.98;;
50671;SDS011;46021;55.882;37.654;2022-09-03T04:21:10;5.97;;;1.30;;
50671;SDS011;46021;55.882;37.654;2022-09-03T04:23:39;6.68;;;1.35;;
50671;SDS011;46021;55.882;37.654;2022-09-03T04:26:08;4.22;;;1.30;;
50671;SDS011;46021;55.882;37.654;2022-09-03T04:28:36;2.15;;;1.10;;
50671;SDS011;46021;55.882;37.654;2022-09-03T04:31:03;2.50;;;1.30;;
50671;SDS011;46021;55.882;37.654;2022-09-03T04:33:32;2.42;;;1.00;;
50671;SDS011;46021;55.882;37.654;2022-09-03T04:36:01;4.05;;;1.40;;
50671;SDS011;46021;55.882;37.654;2022-09-03T04:38:30;2.08;;;1.10;;
50671;SDS011;46021;55.882;37.654;2022-09-03T04:40:57;3.72;;;1.42;;
50671;SDS011;46021;55.882;37.654;2022-09-03T04:43:24;7.35;;;1.48;;
50671;SDS011;46021;55.882;37.654;2022-09-03T04:45:54;10.27;;;1.50;;
50671;SDS011;46021;55.882;37.654;2022-09-03T04:48:21;1.80;;;1.05;;
50671;SDS011;46021;55.882;37.654;2022-09-03T04:50:49;4.07;;;1.20;;
50671;SDS011;46021;55.882;37.654;2022-09-03T04:53:15;2.22;;;1.10;;
50671;SDS011;46021;55.882;37.654;2022-09-03T04:55:42;3.50;;;1.23;;
50671;SDS011;46021;55.882;37.654;2022-09-03T04:58:08;2.72;;;1.30;;
50671;SDS011;46021;55.882;37.654;2022-09-03T05:00:35;2.45;;;1.25;;
50671;SDS011;46021;55.882;37.654;2022-09-03T05:03:02;2.33;;;1.27;;
50671;SDS011;46021;55.882;37.654;2022-09-03T05:07:57;5.43;;;1.48;;
50671;SDS011;46021;55.882;37.654;2022-09-03T05:10:26;4.38;;;1.38;;
50671;SDS011;46021;55.882;37.654;2022-09-03T05:12:56;3.13;;;1.20;;
50671;SDS011;46021;55.882;37.654;2022-09-03T05:15:24;4.60;;;1.30;;
50671;SDS011;46021;55.882;37.654;2022-09-03T05:17:54;2.20;;;1.33;;
50671;SDS011;46021;55.882;37.654;2022-09-03T05:20:21;3.25;;;1.20;;
50671;SDS011;46021;55.882;37.654;2022-09-03T05:22:47;2.53;;;1.30;;
50671;SDS011;46021;55.882;37.654;2022-09-03T05:25:15;3.57;;;1.10;;
50671;SDS011;46021;55.882;37.654;2022-09-03T05:27:41;5.35;;;1.50;;
50671;SDS011;46021;55.882;37.654;2022-09-03T05:30:08;4.13;;;1.40;;
50671;SDS011;46021;55.882;37.654;2022-09-03T05:32:36;3.38;;;1.30;;
50671;SDS011;46021;55.882;37.654;2022-09-03T05:35:03;2.10;;;1.20;;
50671;SDS011;46021;55.882;37.654;2022-09-03T05:37:30;3.97;;;1.30;;
50671;SDS011;46021;55.882;37.654;2022-09-03T05:39:57;1.75;;;1.17;;
50671;SDS011;46021;55.882;37.654;2022-09-03T05:42:24;2.23;;;1.40;;
50671;SDS011;46021;55.882;37.654;2022-09-03T05:44:52;2.28;;;1.30;;
50671;SDS011;46021;55.882;37.654;2022-09-03T05:47:19;6.60;;;1.20;;
50671;SDS011;46021;55.882;37.654;2022-09-03T05:49:45;3.53;;;1.40;;
50671;SDS011;46021;55.882;37.654;2022-09-03T05:52:12;2.22;;;1.25;;
50671;SDS011;46021;55.882;37.654;2022-09-03T05:54:38;4.10;;;1.15;;
50671;SDS011;46021;55.882;37.654;2022-09-03T05:57:05;3.33;;;1.50;;
50671;SDS011;46021;55.882;37.654;2022-09-03T05:59:32;5.22;;;1.25;;
50671;SDS011;46021;55.882;37.654;2022-09-03T06:01:59;3.00;;;1.63;;
50671;SDS011;46021;55.882;37.654;2022-09-03T06:04:25;6.05;;;1.30;;
50671;SDS011;46021;55.882;37.654;2022-09-03T06:06:52;4.55;;;1.60;;
50671;SDS011;46021;55.882;37.654;2022-09-03T06:09:19;2.88;;;1.45;;
50671;SDS011;46021;55.882;37.654;2022-09-03T06:14:14;2.67;;;1.40;;
50671;SDS011;46021;55.882;37.654;2022-09-03T06:16:42;3.13;;;1.50;;
50671;SDS011;46021;55.882;37.654;2022-09-03T06:19:10;3.80;;;1.52;;
50671;SDS011;46021;55.882;37.654;2022-09-03T06:24:08;2.90;;;1.40;;
50671;SDS011;46021;55.882;37.654;2022-09-03T06:26:35;3.40;;;1.70;;
50671;SDS011;46021;55.882;37.654;2022-09-03T06:29:01;3.10;;;1.52;;
50671;SDS011;46021;55.882;37.654;2022-09-03T06:31:28;3.45;;;1.70;;
50671;SDS011;46021;55.882;37.654;2022-09-03T06:33:55;6.63;;;1.75;;
50671;SDS011;46021;55.882;37.654;2022-09-03T06:36:23;6.15;;;1.88;;
50671;SDS011;46021;55.882;37.654;2022-09-03T06:38:51;7.55;;;1.60;;
50671;SDS011;46021;55.882;37.654;2022-09-03T06:41:19;2.88;;;1.48;;
50671;SDS011;46021;55.882;37.654;2022-09-03T06:43:49;9.60;;;1.50;;
50671;SDS011;46021;55.882;37.654;2022-09-03T06:46:18;2.53;;;1.17;;
50671;SDS011;46021;55.882;37.654;2022-09-03T06:48:46;4.57;;;1.10;;
50671;SDS011;46021;55.882;37.654;2022-09-03T06:51:14;2.30;;;1.23;;
50671;SDS011;46021;55.882;37.654;2022-09-03T06:53:42;1.60;;;1.00;;
50671;SDS011;46021;55.882;37.654;2022-09-03T06:56:11;1.75;;;1.20;;
50671;SDS011;46021;55.882;37.654;2022-09-03T06:58:39;5.47;;;1.55;;
50671;SDS011;46021;55.882;37.654;2022-09-03T07:01:09;5.28;;;2.00;;
50671;SDS011;46021;55.882;37.654;2022-09-03T07:03:37;5.95;;;1.95;;
50671;SDS011;46021;55.882;37.654;2022-09-03T07:06:05;3.83;;;1.25;;
50671;SDS011;46021;55.882;37.654;2022-09-03T07:08:34;5.93;;;1.40;;
50671;SDS011;46021;55.882;37.654;2022-09-03T07:11:02;2.17;;;1.30;;
50671;SDS011;46021;55.882;37.654;2022-09-03T07:13:33;4.47;;;1.55;;
50671;SDS011;46021;55.882;37.654;2022-09-03T07:16:00;4.15;;;1.60;;
50671;SDS011;46021;55.882;37.654;2022-09-03T07:18:28;4.18;;;1.40;;
50671;SDS011;46021;55.882;37.654;2022-09-03T07:20:58;4.37;;;2.17;;
50671;SDS011;46021;55.882;37.654;2022-09-03T07:23:25;4.05;;;1.30;;
50671;SDS011;46021;55.882;37.654;2022-09-03T07:25:53;5.83;;;1.30;;
50671;SDS011;46021;55.882;37.654;2022-09-03T07:30:46;1.98;;;1.30;;
50671;SDS011;46021;55.882;37.654;2022-09-03T07:33:13;7.55;;;1.48;;
50671;SDS011;46021;55.882;37.654;2022-09-03T07:35:39;3.42;;;1.73;;
50671;SDS011;46021;55.882;37.654;2022-09-03T07:38:06;2.88;;;1.83;;
50671;SDS011;46021;55.882;37.654;2022-09-03T07:40:33;2.10;;;1.25;;
50671;SDS011;46021;55.882;37.654;2022-09-03T07:43:01;9.30;;;1.92;;
50671;SDS011;46021;55.882;37.654;2022-09-03T07:45:29;3.80;;;1.70;;
50671;SDS011;46021;55.882;37.654;2022-09-03T07:47:58;6.30;;;1.80;;
50671;SDS011;46021;55.882;37.654;2022-09-03T07:50:24;4.30;;;1.60;;
50671;SDS011;46021;55.882;37.654;2022-09-03T07:52:54;3.45;;;1.77;;
50671;SDS011;46021;55.882;37.654;2022-09-03T07:55:22;2.22;;;1.20;;
50671;SDS011;46021;55.882;37.654;2022-09-03T07:57:49;3.85;;;1.42;;
50671;SDS011;46021;55.882;37.654;2022-09-03T08:00:20;3.38;;;1.40;;
50671;SDS011;46021;55.882;37.654;2022-09-03T08:02:47;7.10;;;1.58;;
50671;SDS011;46021;55.882;37.654;2022-09-03T08:05:13;4.85;;;1.70;;
50671;SDS011;46021;55.882;37.654;2022-09-03T08:07:40;4.80;;;1.50;;
50671;SDS011;46021;55.882;37.654;2022-09-03T08:10:07;3.35;;;1.08;;
50671;SDS011;46021;55.882;37.654;2022-09-03T08:12:34;3.08;;;1.38;;
50671;SDS011;46021;55.882;37.654;2022-09-03T08:15:00;2.85;;;1.00;;
50671;SDS011;46021;55.882;37.654;2022-09-03T08:17:30;2.17;;;0.90;;
50671;SDS011;46021;55.882;37.654;2022-09-03T08:19:56;6.10;;;1.30;;
50671;SDS011;46021;55.882;37.654;2022-09-03T08:22:23;2.95;;;1.20;;
50671;SDS011;46021;55.882;37.654;2022-09-03T08:24:50;2.70;;;1.00;;
50671;SDS011;46021;55.882;37.654;2022-09-03T08:27:18;4.25;;;1.30;;
50671;SDS011;46021;55.882;37.654;2022-09-03T08:29:50;6.43;;;1.42;;
50671;SDS011;46021;55.882;37.654;2022-09-03T08:32:17;3.80;;;1.10;;
50671;SDS011;46021;55.882;37.654;2022-09-03T08:34:44;2.13;;;1.20;;
50671;SDS011;46021;55.882;37.654;2022-09-03T08:37:11;5.40;;;1.17;;
50671;SDS011;46021;55.882;37.654;2022-09-03T08:39:37;3.47;;;1.10;;
50671;SDS011;46021;55.882;37.654;2022-09-03T08:45:12;1.23;;;0.80;;
50671;SDS011;46021;55.882;37.654;2022-09-03T08:47:42;2.97;;;1.50;;
50671;SDS011;46021;55.882;37.654;2022-09-03T08:50:15;3.42;;;1.05;;
50671;SDS011;46021;55.882;37.654;2022-09-03T08:52:49;3.53;;;1.10;;
50671;SDS011;46021;55.882;37.654;2022-09-03T08:55:20;9.85;;;1.20;;
50671;SDS011;46021;55.882;37.654;2022-09-03T08:57:54;3.30;;;0.80;;
50671;SDS011;46021;55.882;37.654;2022-09-03T09:00:27;1.20;;;0.70;;
50671;SDS011;46021;55.882;37.654;2022-09-03T09:03:20;2.35;;;0.85;;
50671;SDS011;46021;55.882;37.654;2022-09-03T09:06:04;1.08;;;0.75;;
50671;SDS011;46021;55.882;37.654;2022-09-03T09:08:43;0.90;;;0.70;;
50671;SDS011;46021;55.882;37.654;2022-09-03T09:11:24;8.68;;;1.00;;
50671;SDS011;46021;55.882;37.654;2022-09-03T09:13:59;1.33;;;0.90;;
50671;SDS011;46021;55.882;37.654;2022-09-03T09:16:34;2.47;;;0.90;;
50671;SDS011;46021;55.882;37.654;2022-09-03T09:19:09;4.28;;;0.70;;
50671;SDS011;46021;55.882;37.654;2022-09-03T09:21:47;5.18;;;0.70;;
50671;SDS011;46021;55.882;37.654;2022-09-03T09:24:18;1.58;;;0.90;;
50671;SDS011;46021;55.882;37.654;2022-09-03T09:26:56;1.25;;;0.82;;
50671;SDS011;46021;55.882;37.654;2022-09-03T09:29:25;5.25;;;0.80;;
50671;SDS011;46021;55.882;37.654;2022-09-03T09:31:54;1.50;;;0.80;;
50671;SDS011;46021;55.882;37.654;2022-09-03T09:36:49;1.63;;;0.95;;
50671;SDS011;46021;55.882;37.654;2022-09-03T09:39:17;3.75;;;0.70;;
50671;SDS011;46021;55.882;37.654;2022-09-03T09:41:55;1.25;;;0.70;;
50671;SDS011;46021;55.882;37.654;2022-09-03T09:44:23;6.75;;;0.80;;
50671;SDS011;46021;55.882;37.654;2022-09-03T09:49:27;1.25;;;0.60;;
50671;SDS011;46021;55.882;37.654;2022-09-03T09:52:01;1.85;;;0.82;;
50671;SDS011;46021;55.882;37.654;2022-09-03T09:54:30;0.90;;;0.60;;
50671;SDS011;46021;55.882;37.654;2022-09-03T09:56:57;6.40;;;0.90;;
50671;SDS011;46021;55.882;37.654;2022-09-03T09:59:26;0.95;;;0.60;;
50671;SDS011;46021;55.882;37.654;2022-09-03T10:02:01;3.05;;;0.52;;
50671;SDS011;46021;55.882;37.654;2022-09-03T10:04:34;3.85;;;0.82;;
50671;SDS011;46021;55.882;37.654;2022-09-03T10:07:04;1.33;;;0.70;;
50671;SDS011;46021;55.882;37.654;2022-09-03T10:09:56;1.23;;;0.70;;
50671;SDS011;46021;55.882;37.654;2022-09-03T10:12:27;0.67;;;0.47;;
50671;SDS011;46021;55.882;37.654;2022-09-03T10:15:02;4.18;;;0.85;;
50671;SDS011;46021;55.882;37.654;2022-09-03T10:17:48;1.63;;;1.10;;
50671;SDS011;46021;55.882;37.654;2022-09-03T10:20:23;3.03;;;0.90;;
50671;SDS011;46021;55.882;37.654;2022-09-03T10:22:58;1.50;;;0.80;;
50671;SDS011;46021;55.882;37.654;2022-09-03T10:25:34;1.52;;;0.70;;
50671;SDS011;46021;55.882;37.654;2022-09-03T10:28:08;0.70;;;0.60;;
50671;SDS011;46021;55.882;37.654;2022-09-03T10:30:38;1.90;;;0.70;;
50671;SDS011;46021;55.882;37.654;2022-09-03T10:33:17;2.22;;;0.65;;
50671;SDS011;46021;55.882;37.654;2022-09-03T10:35:51;0.55;;;0.50;;
50671;SDS011;46021;55.882;37.654;2022-09-03T10:38:26;0.82;;;0.50;;
50671;SDS011;46021;55.882;37.654;2022-09-03T10:40:58;1.58;;;1.00;;
50671;SDS011;46021;55.882;37.654;2022-09-03T10:43:40;3.78;;;0.90;;
50671;SDS011;46021;55.882;37.654;2022-09-03T10:46:25;5.18;;;0.90;;
50671;SDS011;46021;55.882;37.654;2022-09-03T10:51:49;0.85;;;0.60;;
50671;SDS011;46021;55.882;37.654;2022-09-03T10:54:30;1.75;;;0.90;;
50671;SDS011;46021;55.882;37.654;2022-09-03T10:57:07;4.30;;;1.00;;
50671;SDS011;46021;55.882;37.654;2022-09-03T10:59:45;2.30;;;0.65;;
50671;SDS011;46021;55.882;37.654;2022-09-03T11:02:34;2.55;;;0.82;;
50671;SDS011;46021;55.882;37.654;2022-09-03T11:05:27;1.65;;;0.82;;
50671;SDS011;46021;55.882;37.654;2022-09-03T11:08:00;1.88;;;0.93;;
50671;SDS011;46021;55.882;37.654;2022-09-03T11:10:33;1.67;;;0.75;;
50671;SDS011;46021;55.882;37.654;2022-09-03T11:13:07;2.13;;;0.75;;
50671;SDS011;46021;55.882;37.654;2022-09-03T11:15:40;4.57;;;1.02;;
50671;SDS011;46021;55.882;37.654;2022-09-03T11:18:14;2.65;;;0.77;;
50671;SDS011;46021;55.882;37.654;2022-09-03T11:20:48;3.55;;;0.90;;
50671;SDS011;46021;55.882;37.654;2022-09-03T11:23:20;4.47;;;0.80;;
50671;SDS011;46021;55.882;37.654;2022-09-03T11:25:51;2.15;;;1.05;;
50671;SDS011;46021;55.882;37.654;2022-09-03T11:28:24;1.17;;;0.80;;
50671;SDS011;46021;55.882;37.654;2022-09-03T11:31:04;3.28;;;0.90;;
50671;SDS011;46021;55.882;37.654;2022-09-03T11:33:44;2.47;;;0.80;;
50671;SDS011;46021;55.882;37.654;2022-09-03T11:36:19;1.17;;;0.82;;
50671;SDS011;46021;55.882;37.654;2022-09-03T11:41:23;2.03;;;0.82;;
50671;SDS011;46021;55.882;37.654;2022-09-03T11:43:51;4.97;;;0.98;;
50671;SDS011;46021;55.882;37.654;2022-09-03T11:46:26;5.07;;;1.27;;
50671;SDS011;46021;55.882;37.654;2022-09-03T11:48:55;2.88;;;1.20;;
50671;SDS011;46021;55.882;37.654;2022-09-03T11:51:29;5.82;;;0.93;;
50671;SDS011;46021;55.882;37.654;2022-09-03T11:54:00;2.30;;;1.10;;
50671;SDS011;46021;55.882;37.654;2022-09-03T11:56:29;1.35;;;0.70;;
50671;SDS011;46021;55.882;37.654;2022-09-03T11:59:04;2.78;;;0.80;;
50671;SDS011;46021;55.882;37.654;2022-09-03T12:01:45;10.98;;;0.82;;
50671;SDS011;46021;55.882;37.654;2022-09-03T12:04:16;2.58;;;1.00;;
50671;SDS011;46021;55.882;37.654;2022-09-03T12:06:56;2.22;;;1.00;;
50671;SDS011;46021;55.882;37.654;2022-09-03T12:12:56;3.40;;;0.73;;
50671;SDS011;46021;55.882;37.654;2022-09-03T12:15:37;3.00;;;0.90;;
50671;SDS011;46021;55.882;37.654;2022-09-03T12:18:14;1.30;;;0.82;;
50671;SDS011;46021;55.882;37.654;2022-09-03T12:20:47;3.25;;;1.45;;
50671;SDS011;46021;55.882;37.654;2022-09-03T12:23:26;2.50;;;0.95;;
50671;SDS011;46021;55.882;37.654;2022-09-03T12:25:55;1.83;;;0.85;;
50671;SDS011;46021;55.882;37.654;2022-09-03T12:28:24;1.77;;;0.70;;
50671;SDS011;46021;55.882;37.654;2022-09-03T12:31:04;2.17;;;0.90;;
50671;SDS011;46021;55.882;37.654;2022-09-03T12:35:59;4.45;;;0.98;;
50671;SDS011;46021;55.882;37.654;2022-09-03T12:38:27;4.68;;;0.80;;
50671;SDS011;46021;55.882;37.654;2022-09-03T12:40:56;5.55;;;1.00;;
50671;SDS011;46021;55.882;37.654;2022-09-03T12:43:26;1.48;;;0.70;;
50671;SDS011;46021;55.882;37.654;2022-09-03T12:45:54;4.82;;;0.73;;
50671;SDS011;46021;55.882;37.654;2022-09-03T12:48:20;6.27;;;0.97;;
50671;SDS011;46021;55.882;37.654;2022-09-03T12:50:47;2.50;;;0.90;;
50671;SDS011;46021;55.882;37.654;2022-09-03T12:53:25;3.78;;;0.93;;
50671;SDS011;46021;55.882;37.654;2022-09-03T12:55:57;3.00;;;0.82;;
50671;SDS011;46021;55.882;37.654;2022-09-03T12:58:27;1.73;;;0.75;;
50671;SDS011;46021;55.882;37.654;2022-09-03T13:00:58;1.08;;;0.60;;
50671;SDS011;46021;55.882;37.654;2022-09-03T13:03:36;1.55;;;0.68;;
50671;SDS011;46021;55.882;37.654;2022-09-03T13:06:11;6.05;;;1.25;;
50671;SDS011;46021;55.882;37.654;2022-09-03T13:08:44;7.28;;;1.73;;
50671;SDS011;46021;55.882;37.654;2022-09-03T13:11:14;2.92;;;1.25;;
50671;SDS011;46021;55.882;37.654;2022-09-03T13:13:49;4.22;;;0.90;;
50671;SDS011;46021;55.882;37.654;2022-09-03T13:19:18;2.50;;;0.77;;
50671;SDS011;46021;55.882;37.654;2022-09-03T13:21:53;1.42;;;0.70;;
50671;SDS011;46021;55.882;37.654;2022-09-03T13:24:33;1.90;;;0.52;;
50671;SDS011;46021;55.882;37.654;2022-09-03T13:27:13;4.68;;;0.90;;
50671;SDS011;46021;55.882;37.654;2022-09-03T13:29:50;2.33;;;0.90;;
50671;SDS011;46021;55.882;37.654;2022-09-03T13:32:29;4.22;;;0.90;;
50671;SDS011;46021;55.882;37.654;2022-09-03T13:35:03;1.17;;;0.70;;
50671;SDS011;46021;55.882;37.654;2022-09-03T13:37:36;2.97;;;1.05;;
50671;SDS011;46021;55.882;37.654;2022-09-03T13:40:13;2.17;;;0.80;;
50671;SDS011;46021;55.882;37.654;2022-09-03T13:42:44;1.85;;;0.82;;
50671;SDS011;46021;55.882;37.654;2022-09-03T13:45:22;1.15;;;0.70;;
50671;SDS011;46021;55.882;37.654;2022-09-03T13:47:55;1.50;;;0.85;;
50671;SDS011;46021;55.882;37.654;2022-09-03T13:50:44;1.63;;;0.80;;
50671;SDS011;46021;55.882;37.654;2022-09-03T13:53:17;5.82;;;0.98;;
50671;SDS011;46021;55.882;37.654;2022-09-03T13:55:50;10.57;;;4.10;;
50671;SDS011;46021;55.882;37.654;2022-09-03T13:58:21;2.38;;;1.10;;
50671;SDS011;46021;55.882;37.654;2022-09-03T14:01:03;3.35;;;0.90;;
50671;SDS011;46021;55.882;37.654;2022-09-03T14:03:35;3.20;;;1.60;;
50671;SDS011;46021;55.882;37.654;2022-09-03T14:06:16;2.47;;;1.00;;
50671;SDS011;46021;55.882;37.654;2022-09-03T14:08:55;3.17;;;1.00;;
50671;SDS011;46021;55.882;37.654;2022-09-03T14:11:28;2.80;;;0.85;;
50671;SDS011;46021;55.882;37.654;2022-09-03T14:14:01;3.38;;;1.08;;
50671;SDS011;46021;55.882;37.654;2022-09-03T14:16:39;4.80;;;1.60;;
50671;SDS011;46021;55.882;37.654;2022-09-03T14:19:11;3.85;;;1.00;;
50671;SDS011;46021;55.882;37.654;2022-09-03T14:21:43;1.80;;;0.90;;
50671;SDS011;46021;55.882;37.654;2022-09-03T14:24:19;1.67;;;0.80;;
50671;SDS011;46021;55.882;37.654;2022-09-03T14:26:50;3.20;;;1.30;;
50671;SDS011;46021;55.882;37.654;2022-09-03T14:29:20;1.65;;;1.10;;
50671;SDS011;46021;55.882;37.654;2022-09-03T14:34:53;12.32;;;1.45;;
50671;SDS011;46021;55.882;37.654;2022-09-03T14:37:35;3.10;;;1.20;;
50671;SDS011;46021;55.882;37.654;2022-09-03T14:40:15;5.25;;;0.90;;
50671;SDS011;46021;55.882;37.654;2022-09-03T14:42:50;6.65;;;1.00;;
50671;SDS011;46021;55.882;37.654;2022-09-03T14:45:47;5.05;;;1.20;;
50671;SDS011;46021;55.882;37.654;2022-09-03T14:51:21;1.45;;;0.80;;
50671;SDS011;46021;55.882;37.654;2022-09-03T14:54:19;4.65;;;1.10;;
50671;SDS011;46021;55.882;37.654;2022-09-03T14:57:10;2.65;;;1.02;;
50671;SDS011;46021;55.882;37.654;2022-09-03T15:00:06;5.55;;;1.30;;
50671;SDS011;46021;55.882;37.654;2022-09-03T15:02:44;2.42;;;1.35;;
50671;SDS011;46021;55.882;37.654;2022-09-03T15:05:32;2.42;;;0.93;;
50671;SDS011;46021;55.882;37.654;2022-09-03T15:08:08;4.70;;;1.05;;
50671;SDS011;46021;55.882;37.654;2022-09-03T15:10:42;2.33;;;1.00;;
50671;SDS011;46021;55.882;37.654;2022-09-03T15:13:13;2.15;;;1.00;;
50671;SDS011;46021;55.882;37.654;2022-09-03T15:15:48;1.83;;;1.00;;
50671;SDS011;46021;55.882;37.654;2022-09-03T15:18:25;7.47;;;3.30;;
50671;SDS011;46021;55.882;37.654;2022-09-03T15:20:59;5.47;;;2.05;;
50671;SDS011;46021;55.882;37.654;2022-09-03T15:23:41;2.72;;;1.20;;
50671;SDS011;46021;55.882;37.654;2022-09-03T15:26:33;2.97;;;1.00;;
50671;SDS011;46021;55.882;37.654;2022-09-03T15:32:06;2.08;;;1.10;;
50671;SDS011;46021;55.882;37.654;2022-09-03T15:34:55;2.35;;;1.02;;
50671;SDS011;46021;55.882;37.654;2022-09-03T15:37:35;2.10;;;0.95;;
50671;SDS011;46021;55.882;37.654;2022-09-03T15:40:08;5.13;;;0.82;;
50671;SDS011;46021;55.882;37.654;2022-09-03T15:42:45;2.42;;;1.10;;
50671;SDS011;46021;55.882;37.654;2022-09-03T15:45:16;3.20;;;0.90;;
50671;SDS011;46021;55.882;37.654;2022-09-03T15:47:50;1.98;;;0.85;;
50671;SDS011;46021;55.882;37.654;2022-09-03T15:50:24;4.80;;;1.08;;